Time;durP1;ratioP1;P1;durP2;ratioP2;P2;SDS_P1;SDS_P2;PMS_P1;PMS_P2;Temp;Humidity;BMP_temperature;BMP_pressure;BME280_temperature;BME280_humidity;BME280_pressure;Samples;Min_cycle;Max_cycle;Signal;HPM_P1;HPM_P2
2021/12/03 00:01:53;;;;;;;5.38;1.42;;;;;;;;;;4957721;28;20031;-79
2021/12/03 00:04:19;;;;;;;11.45;3.42;;;;;;;;;;4977105;28;20037;-79
2021/12/03 00:06:45;;;;;;;5.45;1.13;;;;;;;;;;4976900;28;20050;-79
2021/12/03 00:09:11;;;;;;;5.40;1.25;;;;;;;;;;4972576;28;20101;-79
2021/12/03 00:11:37;;;;;;;7.57;1.52;;;;;;;;;;4971853;28;20075;-79
2021/12/03 00:14:03;;;;;;;4.20;1.55;;;;;;;;;;4976513;28;20023;-79
2021/12/03 00:16:29;;;;;;;4.30;1.13;;;;;;;;;;4971561;28;20109;-79
2021/12/03 00:18:56;;;;;;;7.90;1.40;;;;;;;;;;4976976;28;20414;-79
2021/12/03 00:21:24;;;;;;;4.75;1.20;;;;;;;;;;4977179;28;20035;-79
2021/12/03 00:23:50;;;;;;;7.18;1.38;;;;;;;;;;4959180;28;20077;-79
2021/12/03 00:26:16;;;;;;;6.65;2.05;;;;;;;;;;4976954;28;20039;-79
2021/12/03 00:28:42;;;;;;;7.90;1.77;;;;;;;;;;4976650;28;20038;-79
2021/12/03 00:31:09;;;;;;;10.48;2.30;;;;;;;;;;4958725;28;20122;-79
2021/12/03 00:33:36;;;;;;;10.95;2.10;;;;;;;;;;4977098;28;20031;-79
2021/12/03 00:36:05;;;;;;;6.28;1.55;;;;;;;;;;4976802;28;20027;-79
2021/12/03 00:38:36;;;;;;;6.00;1.70;;;;;;;;;;4976784;28;20031;-79
2021/12/03 00:41:04;;;;;;;7.28;1.45;;;;;;;;;;4976770;28;20053;-79
2021/12/03 00:43:30;;;;;;;5.97;1.85;;;;;;;;;;4975017;28;20081;-79
2021/12/03 00:46:04;;;;;;;11.63;1.60;;;;;;;;;;4975652;28;20031;-79
2021/12/03 00:48:30;;;;;;;5.65;1.45;;;;;;;;;;4976629;28;20022;-79
2021/12/03 00:50:56;;;;;;;5.72;1.42;;;;;;;;;;4958912;28;20031;-79
2021/12/03 00:53:22;;;;;;;10.10;1.83;;;;;;;;;;4976790;28;20105;-79
2021/12/03 00:55:48;;;;;;;8.70;1.80;;;;;;;;;;4976262;28;20030;-79
2021/12/03 00:58:14;;;;;;;5.10;1.35;;;;;;;;;;4975452;28;20085;-78
2021/12/03 01:00:40;;;;;;;8.75;1.58;;;;;;;;;;4976468;28;20038;-79
2021/12/03 01:03:06;;;;;;;9.85;1.67;;;;;;;;;;4976101;28;20037;-79
2021/12/03 01:05:34;;;;;;;7.85;1.60;;;;;;;;;;4958839;28;20026;-79
2021/12/03 01:08:00;;;;;;;10.23;1.70;;;;;;;;;;4975869;28;20034;-79
2021/12/03 01:10:27;;;;;;;5.28;1.85;;;;;;;;;;4975792;28;20047;-79
2021/12/03 01:12:53;;;;;;;7.20;1.50;;;;;;;;;;4975003;28;20366;-79
2021/12/03 01:15:22;;;;;;;5.28;1.52;;;;;;;;;;4975795;28;20556;-79
2021/12/03 01:17:49;;;;;;;9.50;1.70;;;;;;;;;;4976220;28;20023;-79
2021/12/03 01:20:18;;;;;;;6.05;1.70;;;;;;;;;;4975656;28;20439;-79
2021/12/03 01:22:46;;;;;;;7.75;1.83;;;;;;;;;;4975933;28;20072;-79
2021/12/03 01:25:13;;;;;;;8.13;2.55;;;;;;;;;;4975693;28;20034;-79
2021/12/03 01:27:40;;;;;;;9.60;1.70;;;;;;;;;;4956466;28;20476;-79
2021/12/03 01:30:07;;;;;;;9.73;1.67;;;;;;;;;;4956474;28;20023;-79
2021/12/03 01:32:33;;;;;;;6.45;1.52;;;;;;;;;;4956587;29;20030;-79
2021/12/03 01:34:59;;;;;;;5.35;1.50;;;;;;;;;;4958055;28;20019;-79
2021/12/03 01:37:25;;;;;;;11.18;2.08;;;;;;;;;;4975675;28;20081;-79
2021/12/03 01:39:52;;;;;;;6.97;1.77;;;;;;;;;;4958019;28;20034;-79
2021/12/03 01:42:18;;;;;;;5.82;1.70;;;;;;;;;;4974882;28;20070;-79
2021/12/03 01:44:44;;;;;;;5.72;1.58;;;;;;;;;;4975562;28;20061;-79
2021/12/03 01:47:10;;;;;;;10.95;1.90;;;;;;;;;;4957349;28;20023;-79
2021/12/03 01:49:36;;;;;;;6.07;1.83;;;;;;;;;;4975444;28;20497;-79
2021/12/03 01:52:02;;;;;;;6.53;1.90;;;;;;;;;;4975519;28;20043;-79
2021/12/03 01:54:28;;;;;;;6.93;1.42;;;;;;;;;;4975180;28;20084;-79
2021/12/03 01:56:54;;;;;;;8.35;1.92;;;;;;;;;;4957534;28;20025;-79
2021/12/03 01:59:21;;;;;;;8.75;1.73;;;;;;;;;;4975325;28;20033;-79
2021/12/03 02:01:47;;;;;;;4.40;1.40;;;;;;;;;;4975220;28;20501;-79
2021/12/03 02:04:13;;;;;;;13.88;2.30;;;;;;;;;;4974790;28;20038;-79
2021/12/03 02:06:39;;;;;;;9.10;1.95;;;;;;;;;;4975083;28;20030;-79
2021/12/03 02:09:06;;;;;;;8.20;1.98;;;;;;;;;;4957542;28;20023;-79
2021/12/03 02:11:32;;;;;;;10.07;1.80;;;;;;;;;;4974457;28;20043;-79
2021/12/03 02:13:58;;;;;;;10.73;2.58;;;;;;;;;;4974988;28;20031;-79
2021/12/03 02:16:24;;;;;;;9.40;1.63;;;;;;;;;;4957414;28;20022;-79
2021/12/03 02:18:50;;;;;;;8.40;2.10;;;;;;;;;;4974183;28;20035;-79
2021/12/03 02:21:17;;;;;;;6.13;1.75;;;;;;;;;;4974758;28;20027;-79
2021/12/03 02:23:44;;;;;;;8.07;1.80;;;;;;;;;;4973873;28;20077;-79
2021/12/03 02:26:10;;;;;;;5.70;1.95;;;;;;;;;;4974128;28;20097;-79
2021/12/03 02:28:39;;;;;;;7.82;2.55;;;;;;;;;;4974296;28;20027;-79
2021/12/03 02:31:05;;;;;;;6.72;1.80;;;;;;;;;;4974251;28;20023;-79
2021/12/03 02:33:32;;;;;;;9.02;1.98;;;;;;;;;;4974605;28;20027;-79
2021/12/03 02:35:58;;;;;;;9.70;2.40;;;;;;;;;;4957388;28;20504;-79
2021/12/03 02:38:26;;;;;;;6.10;2.10;;;;;;;;;;4973457;28;20470;-79
2021/12/03 02:40:52;;;;;;;8.65;2.45;;;;;;;;;;4968559;28;20023;-79
2021/12/03 02:43:18;;;;;;;9.00;2.13;;;;;;;;;;4955201;28;20069;-78
2021/12/03 02:45:45;;;;;;;10.32;2.65;;;;;;;;;;4955234;29;20054;-79
2021/12/03 02:48:11;;;;;;;9.80;2.80;;;;;;;;;;4953943;28;20118;-79
2021/12/03 02:50:37;;;;;;;8.77;2.20;;;;;;;;;;4954980;28;20035;-79
2021/12/03 02:53:04;;;;;;;9.98;2.25;;;;;;;;;;4956154;28;20033;-79
2021/12/03 02:55:30;;;;;;;8.05;2.38;;;;;;;;;;4956246;28;20050;-78
2021/12/03 02:57:56;;;;;;;9.27;2.17;;;;;;;;;;4973948;28;20031;-78
2021/12/03 03:00:23;;;;;;;9.48;2.22;;;;;;;;;;4974157;28;20070;-79
2021/12/03 03:02:50;;;;;;;6.22;2.03;;;;;;;;;;4974493;28;20037;-79
2021/12/03 03:05:17;;;;;;;9.93;2.35;;;;;;;;;;4974229;28;20019;-79
2021/12/03 03:07:44;;;;;;;10.65;2.47;;;;;;;;;;4973464;28;20510;-79
2021/12/03 03:10:13;;;;;;;6.97;2.15;;;;;;;;;;4973698;28;20046;-79
2021/12/03 03:12:40;;;;;;;6.57;2.40;;;;;;;;;;4974055;28;20027;-79
2021/12/03 03:15:06;;;;;;;10.27;2.22;;;;;;;;;;4973990;28;20570;-79
2021/12/03 03:17:33;;;;;;;10.38;2.05;;;;;;;;;;4973915;28;20038;-79
2021/12/03 03:20:00;;;;;;;9.10;2.40;;;;;;;;;;4974101;28;20027;-79
2021/12/03 03:22:27;;;;;;;10.25;2.13;;;;;;;;;;4973747;28;20061;-79
2021/12/03 03:24:54;;;;;;;11.32;3.17;;;;;;;;;;4974093;28;20027;-79
2021/12/03 03:27:21;;;;;;;10.05;2.10;;;;;;;;;;4955793;28;20027;-79
2021/12/03 03:29:48;;;;;;;12.88;2.35;;;;;;;;;;4974318;28;20061;-79
2021/12/03 03:32:14;;;;;;;15.07;2.53;;;;;;;;;;4973718;28;20023;-79
2021/12/03 03:34:40;;;;;;;12.73;3.00;;;;;;;;;;4973861;28;20031;-79
2021/12/03 03:37:07;;;;;;;4.05;1.88;;;;;;;;;;4977173;28;20069;-79
2021/12/03 03:39:33;;;;;;;8.00;2.03;;;;;;;;;;4977534;28;20383;-79
2021/12/03 03:41:59;;;;;;;6.05;2.45;;;;;;;;;;4977356;28;20510;-78
2021/12/03 03:44:25;;;;;;;7.72;2.55;;;;;;;;;;4977198;28;20031;-78
2021/12/03 03:46:52;;;;;;;9.50;2.30;;;;;;;;;;4977353;28;20371;-79
2021/12/03 03:49:19;;;;;;;12.90;2.45;;;;;;;;;;4977342;28;20022;-78
2021/12/03 03:51:47;;;;;;;12.07;2.75;;;;;;;;;;4977283;28;20022;-79
2021/12/03 03:54:13;;;;;;;9.35;1.90;;;;;;;;;;4959868;28;20483;-79
2021/12/03 03:56:39;;;;;;;8.85;2.00;;;;;;;;;;4977611;28;20030;-79
2021/12/03 03:59:05;;;;;;;12.88;1.88;;;;;;;;;;4958847;28;20034;-79
2021/12/03 04:01:31;;;;;;;13.52;2.58;;;;;;;;;;4976761;28;20118;-78
2021/12/03 04:03:57;;;;;;;5.85;1.95;;;;;;;;;;4977101;28;20106;-78
2021/12/03 04:06:23;;;;;;;8.55;2.40;;;;;;;;;;4976684;28;20526;-78
2021/12/03 04:08:49;;;;;;;5.10;2.20;;;;;;;;;;4977308;28;20426;-79
2021/12/03 04:11:16;;;;;;;9.45;2.92;;;;;;;;;;4977106;28;20047;-79
2021/12/03 04:13:43;;;;;;;9.50;2.53;;;;;;;;;;4968657;28;20035;-79
2021/12/03 04:16:09;;;;;;;6.20;2.58;;;;;;;;;;4971169;28;20110;-79
2021/12/03 04:18:35;;;;;;;12.95;2.58;;;;;;;;;;4976617;28;20030;-79
2021/12/03 04:21:01;;;;;;;9.32;2.85;;;;;;;;;;4976985;28;20029;-79
2021/12/03 04:23:27;;;;;;;11.15;2.63;;;;;;;;;;4963824;28;20031;-79
2021/12/03 04:25:54;;;;;;;10.65;2.78;;;;;;;;;;4957543;28;20546;-79
2021/12/03 04:28:21;;;;;;;10.68;2.92;;;;;;;;;;4957363;29;20102;-79
2021/12/03 04:30:47;;;;;;;11.20;2.80;;;;;;;;;;4957503;28;20046;-78
2021/12/03 04:33:13;;;;;;;10.48;3.15;;;;;;;;;;4967582;28;20110;-79
2021/12/03 04:35:40;;;;;;;12.82;3.20;;;;;;;;;;4958796;28;20544;-79
2021/12/03 04:38:06;;;;;;;7.30;2.88;;;;;;;;;;4977112;28;20370;-79
2021/12/03 04:40:33;;;;;;;10.30;3.00;;;;;;;;;;4976490;28;20522;-79
2021/12/03 04:42:59;;;;;;;17.85;3.30;;;;;;;;;;4976142;28;20069;-79
2021/12/03 04:45:27;;;;;;;10.13;3.67;;;;;;;;;;4976587;28;20034;-79
2021/12/03 04:47:53;;;;;;;11.93;3.08;;;;;;;;;;4975554;28;20371;-79
2021/12/03 04:50:20;;;;;;;8.48;2.80;;;;;;;;;;4976171;28;20046;-79
2021/12/03 04:52:47;;;;;;;9.55;3.22;;;;;;;;;;4976466;28;20474;-79
2021/12/03 04:55:13;;;;;;;11.80;3.28;;;;;;;;;;4976889;28;20495;-79
2021/12/03 04:57:40;;;;;;;11.57;3.53;;;;;;;;;;4975409;28;20410;-78
2021/12/03 05:00:08;;;;;;;13.30;3.65;;;;;;;;;;4958688;28;20449;-79
2021/12/03 05:02:34;;;;;;;15.20;3.55;;;;;;;;;;4976371;28;20075;-79
2021/12/03 05:05:03;;;;;;;12.68;3.45;;;;;;;;;;4975658;28;20027;-79
2021/12/03 05:07:42;;;;;;;10.02;3.17;;;;;;;;;;4975842;28;20026;-79
2021/12/03 05:10:09;;;;;;;17.83;3.63;;;;;;;;;;4975778;28;20404;-79
2021/12/03 05:12:35;;;;;;;7.93;3.53;;;;;;;;;;4975874;28;20038;-79
2021/12/03 05:15:01;;;;;;;20.38;10.45;;;;;;;;;;4976148;28;20051;-79
2021/12/03 05:17:27;;;;;;;40.63;23.33;;;;;;;;;;4958664;28;20023;-79
2021/12/03 05:19:53;;;;;;;15.45;7.55;;;;;;;;;;4975527;28;20031;-80
2021/12/03 05:22:19;;;;;;;11.25;4.05;;;;;;;;;;4975853;28;20027;-79
2021/12/03 05:24:46;;;;;;;12.95;3.92;;;;;;;;;;4969900;28;20038;-79
2021/12/03 05:27:16;;;;;;;9.00;4.05;;;;;;;;;;4958657;28;20019;-79
2021/12/03 05:29:43;;;;;;;8.15;3.97;;;;;;;;;;4975524;28;20031;-79
2021/12/03 05:32:09;;;;;;;10.48;4.57;;;;;;;;;;4972143;28;20029;-78
2021/12/03 05:34:35;;;;;;;8.57;3.75;;;;;;;;;;4962901;28;20035;-78
2021/12/03 05:37:01;;;;;;;15.55;3.95;;;;;;;;;;4973250;28;20031;-78
2021/12/03 05:39:27;;;;;;;10.43;3.80;;;;;;;;;;4975322;28;20027;-80
2021/12/03 05:41:53;;;;;;;14.95;4.10;;;;;;;;;;4958175;28;20487;-80
2021/12/03 05:44:20;;;;;;;13.25;4.45;;;;;;;;;;4975552;28;20458;-80
2021/12/03 05:46:46;;;;;;;16.67;4.90;;;;;;;;;;4974994;28;20378;-80
2021/12/03 05:49:12;;;;;;;8.85;4.15;;;;;;;;;;4957162;28;20041;-82
2021/12/03 05:51:38;;;;;;;10.45;4.70;;;;;;;;;;4970503;28;20470;-81
2021/12/03 05:54:04;;;;;;;12.30;5.13;;;;;;;;;;4973341;28;20107;-82
2021/12/03 05:56:31;;;;;;;12.43;4.85;;;;;;;;;;4974083;28;20406;-82
2021/12/03 05:58:57;;;;;;;10.98;4.60;;;;;;;;;;4973943;28;20035;-82
2021/12/03 06:01:23;;;;;;;11.70;4.88;;;;;;;;;;4955252;28;20509;-82
2021/12/03 06:03:49;;;;;;;14.85;5.25;;;;;;;;;;4967375;28;20165;-81
2021/12/03 06:06:15;;;;;;;14.77;4.75;;;;;;;;;;4967650;28;20054;-81
2021/12/03 06:08:42;;;;;;;17.20;5.22;;;;;;;;;;4954970;28;20090;-81
2021/12/03 06:11:08;;;;;;;16.23;5.82;;;;;;;;;;4967030;28;20055;-81
2021/12/03 06:13:39;;;;;;;27.17;8.02;;;;;;;;;;4973751;28;20034;-81
2021/12/03 06:16:06;;;;;;;12.98;5.45;;;;;;;;;;4956089;28;20038;-82
2021/12/03 06:18:32;;;;;;;19.13;6.85;;;;;;;;;;4973445;28;20039;-83
2021/12/03 06:20:58;;;;;;;15.10;6.50;;;;;;;;;;4956544;28;20034;-81
2021/12/03 06:23:24;;;;;;;16.35;6.30;;;;;;;;;;4978664;28;20066;-80
2021/12/03 06:25:50;;;;;;;17.42;5.85;;;;;;;;;;4957010;28;20026;-80
2021/12/03 06:28:16;;;;;;;12.75;5.97;;;;;;;;;;4973875;28;20089;-80
2021/12/03 06:30:42;;;;;;;18.75;6.93;;;;;;;;;;4973822;28;20428;-80
2021/12/03 06:33:08;;;;;;;13.68;5.60;;;;;;;;;;4974493;28;20109;-80
2021/12/03 06:35:34;;;;;;;10.75;5.22;;;;;;;;;;4974593;28;20031;-80
2021/12/03 06:38:00;;;;;;;12.57;5.50;;;;;;;;;;4973870;28;20109;-80
2021/12/03 06:40:27;;;;;;;11.48;4.68;;;;;;;;;;4973811;28;20483;-80
2021/12/03 06:42:54;;;;;;;13.98;5.80;;;;;;;;;;4973553;28;20061;-80
2021/12/03 06:45:20;;;;;;;10.48;5.78;;;;;;;;;;4973459;28;20097;-80
2021/12/03 06:47:47;;;;;;;13.38;4.90;;;;;;;;;;4973648;28;20026;-79
2021/12/03 06:50:17;;;;;;;13.73;5.75;;;;;;;;;;4956256;28;20418;-80
2021/12/03 06:52:46;;;;;;;13.55;5.75;;;;;;;;;;4973552;28;20032;-80
2021/12/03 06:55:14;;;;;;;16.25;5.15;;;;;;;;;;4956385;28;20406;-80
2021/12/03 06:57:42;;;;;;;12.93;4.85;;;;;;;;;;4973496;28;20162;-80
2021/12/03 07:00:10;;;;;;;12.45;4.75;;;;;;;;;;4972914;28;20046;-80
2021/12/03 07:02:36;;;;;;;12.15;5.15;;;;;;;;;;4973407;28;20101;-80
2021/12/03 07:05:04;;;;;;;13.88;5.90;;;;;;;;;;4973212;28;20372;-79
2021/12/03 07:07:30;;;;;;;11.15;5.35;;;;;;;;;;4973395;28;20018;-80
2021/12/03 07:09:56;;;;;;;24.00;12.63;;;;;;;;;;4972711;28;20047;-80
2021/12/03 07:12:22;;;;;;;19.30;8.23;;;;;;;;;;4973406;28;20050;-79
2021/12/03 07:14:48;;;;;;;19.98;9.77;;;;;;;;;;4972854;28;20038;-80
2021/12/03 07:17:14;;;;;;;15.20;5.38;;;;;;;;;;4973227;28;20030;-79
2021/12/03 07:19:41;;;;;;;16.92;8.52;;;;;;;;;;4973471;28;20397;-80
2021/12/03 07:22:07;;;;;;;12.25;5.65;;;;;;;;;;4973129;28;20030;-80
2021/12/03 07:24:34;;;;;;;12.70;5.70;;;;;;;;;;4972899;28;20104;-80
2021/12/03 07:27:00;;;;;;;15.85;6.38;;;;;;;;;;4972963;28;20023;-79
2021/12/03 07:29:26;;;;;;;14.82;6.85;;;;;;;;;;4972768;28;20069;-80
2021/12/03 07:31:52;;;;;;;13.57;6.75;;;;;;;;;;4973242;28;20034;-80
2021/12/03 07:34:18;;;;;;;14.30;6.28;;;;;;;;;;4972927;28;20042;-79
2021/12/03 07:36:44;;;;;;;21.23;6.80;;;;;;;;;;4973161;28;20114;-80
2021/12/03 07:39:10;;;;;;;12.82;6.40;;;;;;;;;;4972841;28;20041;-80
2021/12/03 07:41:40;;;;;;;15.38;6.68;;;;;;;;;;4973017;28;20110;-80
2021/12/03 07:44:06;;;;;;;15.98;6.70;;;;;;;;;;4954967;28;20258;-80
2021/12/03 07:46:32;;;;;;;18.63;6.68;;;;;;;;;;4973064;28;20042;-80
2021/12/03 07:48:58;;;;;;;19.58;7.20;;;;;;;;;;4972928;28;20038;-80
2021/12/03 07:51:26;;;;;;;19.38;6.25;;;;;;;;;;4955996;28;20400;-80
2021/12/03 07:53:52;;;;;;;22.65;7.60;;;;;;;;;;4955442;28;20038;-80
2021/12/03 07:56:18;;;;;;;19.10;7.50;;;;;;;;;;4972752;28;20516;-80
2021/12/03 07:58:44;;;;;;;16.15;7.72;;;;;;;;;;4972490;28;20037;-80
2021/12/03 08:01:10;;;;;;;19.23;7.88;;;;;;;;;;4972669;28;20030;-80
2021/12/03 08:03:36;;;;;;;15.75;7.30;;;;;;;;;;4973118;28;20061;-79
2021/12/03 08:06:09;;;;;;;15.88;6.75;;;;;;;;;;4972714;28;20023;-80
2021/12/03 08:08:38;;;;;;;20.92;7.35;;;;;;;;;;4972780;28;20027;-80
2021/12/03 08:11:04;;;;;;;18.40;9.07;;;;;;;;;;4955200;28;20410;-80
2021/12/03 08:13:30;;;;;;;13.05;6.68;;;;;;;;;;4972663;28;20031;-80
2021/12/03 08:15:56;;;;;;;13.52;6.50;;;;;;;;;;4972602;28;20110;-80
2021/12/03 08:18:22;;;;;;;15.45;7.10;;;;;;;;;;4972538;28;20031;-79
2021/12/03 08:20:48;;;;;;;19.30;6.85;;;;;;;;;;4972757;28;20035;-79
2021/12/03 08:23:14;;;;;;;16.58;7.00;;;;;;;;;;4974587;28;20490;-79
2021/12/03 08:25:40;;;;;;;13.48;6.63;;;;;;;;;;4976141;28;20430;-79
2021/12/03 08:28:07;;;;;;;14.98;6.50;;;;;;;;;;4976121;28;20132;-79
2021/12/03 08:30:33;;;;;;;17.10;7.10;;;;;;;;;;4975926;28;20025;-80
2021/12/03 08:33:00;;;;;;;14.48;6.63;;;;;;;;;;4975984;28;20031;-79
2021/12/03 08:35:26;;;;;;;14.88;6.63;;;;;;;;;;4976194;28;20034;-79
2021/12/03 08:37:52;;;;;;;15.85;6.28;;;;;;;;;;4958638;28;20081;-79
2021/12/03 08:40:19;;;;;;;15.63;6.68;;;;;;;;;;4958413;28;20188;-80
2021/12/03 08:42:46;;;;;;;14.18;6.20;;;;;;;;;;4975817;28;20398;-79
2021/12/03 08:45:13;;;;;;;15.98;5.70;;;;;;;;;;4975615;28;20033;-80
2021/12/03 08:47:40;;;;;;;14.07;5.78;;;;;;;;;;4975779;28;20098;-80
2021/12/03 08:50:16;;;;;;;14.00;6.63;;;;;;;;;;4976055;28;20073;-80
2021/12/03 08:55:17;;;;;;;14.40;6.43;;;;;;;;;;4975098;28;20393;-80
2021/12/03 08:57:43;;;;;;;9.32;4.82;;;;;;;;;;4975564;28;20026;-80
2021/12/03 09:00:19;;;;;;;10.95;5.85;;;;;;;;;;4975493;28;20411;-80
2021/12/03 09:02:45;;;;;;;17.83;5.55;;;;;;;;;;4975744;28;20027;-79
2021/12/03 09:05:11;;;;;;;13.90;5.25;;;;;;;;;;4975395;28;20383;-80
2021/12/03 09:07:38;;;;;;;16.02;5.80;;;;;;;;;;4957843;28;20579;-80
2021/12/03 09:10:06;;;;;;;13.60;5.15;;;;;;;;;;4974995;28;20054;-80
2021/12/03 09:12:32;;;;;;;13.27;5.70;;;;;;;;;;4975557;28;20135;-80
2021/12/03 09:15:02;;;;;;;16.60;5.70;;;;;;;;;;4957701;28;20030;-80
2021/12/03 09:20:17;;;;;;;10.90;4.93;;;;;;;;;;4975258;28;20030;-80
2021/12/03 09:22:50;;;;;;;12.55;4.78;;;;;;;;;;4975163;28;20502;-80
2021/12/03 09:25:19;;;;;;;12.68;6.03;;;;;;;;;;4974919;28;20534;-80
2021/12/03 09:27:46;;;;;;;18.60;5.97;;;;;;;;;;4975164;28;20023;-80
2021/12/03 09:30:14;;;;;;;11.15;5.13;;;;;;;;;;4957576;28;20029;-80
2021/12/03 09:32:42;;;;;;;11.15;5.18;;;;;;;;;;4974853;28;20030;-80
2021/12/03 09:35:09;;;;;;;11.35;4.13;;;;;;;;;;4974613;28;20106;-80
2021/12/03 09:37:35;;;;;;;12.10;4.70;;;;;;;;;;4974979;28;20471;-80
2021/12/03 09:40:06;;;;;;;10.93;4.28;;;;;;;;;;4974432;28;20119;-80
2021/12/03 09:42:35;;;;;;;10.77;4.07;;;;;;;;;;4974609;28;20031;-80
2021/12/03 09:45:02;;;;;;;9.68;4.50;;;;;;;;;;4957741;28;20121;-80
2021/12/03 09:47:28;;;;;;;7.95;4.25;;;;;;;;;;4974674;28;20065;-80
2021/12/03 09:49:55;;;;;;;13.30;5.60;;;;;;;;;;4975078;28;20027;-80
2021/12/03 09:52:32;;;;;;;11.73;5.13;;;;;;;;;;4974703;28;20169;-80
2021/12/03 09:55:01;;;;;;;12.45;4.63;;;;;;;;;;4956460;28;20081;-80
2021/12/03 10:00:31;;;;;;;10.35;4.85;;;;;;;;;;4965382;28;20112;-80
2021/12/03 10:03:30;;;;;;;11.15;4.97;;;;;;;;;;4974328;28;20023;-80
2021/12/03 10:12:31;;;;;;;11.93;6.00;;;;;;;;;;4974260;28;20110;-80
2021/12/03 10:20:42;;;;;;;12.77;5.55;;;;;;;;;;4974372;28;20058;-80
2021/12/03 10:31:32;;;;;;;10.65;3.80;;;;;;;;;;4933697;29;20105;-80
2021/12/03 10:33:53;;;;;;;12.50;4.75;;;;;;;;;;4933045;29;20024;-80
2021/12/03 10:45:07;;;;;;;9.52;2.97;;;;;;;;;;4876106;29;20045;-80
2021/12/03 10:50:58;;;;;;;10.82;2.75;;;;;;;;;;4877015;29;20057;-80
2021/12/03 11:34:05;;;;;;;8.07;2.40;;;;;;;;;;4857422;29;20071;-78
2021/12/03 11:39:42;;;;;;;8.07;2.00;;;;;;;;;;4857230;29;20037;-79
2021/12/03 11:43:00;;;;;;;10.65;2.08;;;;;;;;;;4837077;29;20053;-79
2021/12/03 16:51:51;;;;;;;3.70;1.30;;;;;;;;;;4937579;29;20042;-78
2021/12/03 16:54:24;;;;;;;5.72;1.60;;;;;;;;;;4917725;29;20125;-79
2021/12/03 16:56:52;;;;;;;5.43;1.70;;;;;;;;;;4920610;29;20028;-78
2021/12/03 16:59:19;;;;;;;6.47;1.70;;;;;;;;;;4913092;29;20435;-79
2021/12/03 17:02:10;;;;;;;8.02;2.00;;;;;;;;;;4937116;29;20031;-79
2021/12/03 17:10:20;;;;;;;6.53;2.00;;;;;;;;;;4860311;29;20082;-81
2021/12/03 17:47:45;;;;;;;5.85;2.67;;;;;;;;;;4847930;29;20109;-79
2021/12/03 17:53:27;;;;;;;18.98;10.68;;;;;;;;;;4851554;29;20036;-80
2021/12/03 18:09:49;;;;;;;10.52;8.45;;;;;;;;;;4847185;29;20078;-80
2021/12/03 18:17:01;;;;;;;8.65;2.55;;;;;;;;;;4848135;29;20041;-80
2021/12/03 18:55:32;;;;;;;4.45;2.60;;;;;;;;;;4749854;30;20489;-78
2021/12/03 18:57:58;;;;;;;9.10;3.20;;;;;;;;;;4749405;30;20065;-78
2021/12/03 19:00:27;;;;;;;5.47;2.53;;;;;;;;;;4749183;30;20052;-78
2021/12/03 19:02:56;;;;;;;5.50;2.70;;;;;;;;;;4749427;30;20478;-78
2021/12/03 19:05:36;;;;;;;5.30;2.40;;;;;;;;;;4749456;30;20040;-78
2021/12/03 19:10:30;;;;;;;5.28;2.58;;;;;;;;;;4794419;29;20851;-78
2021/12/03 19:13:00;;;;;;;4.68;2.30;;;;;;;;;;4820837;29;20030;-78
2021/12/03 19:15:26;;;;;;;4.13;2.10;;;;;;;;;;4821319;29;20527;-78
2021/12/03 19:17:53;;;;;;;5.20;1.80;;;;;;;;;;4821341;29;20056;-79
2021/12/03 19:20:23;;;;;;;5.60;2.42;;;;;;;;;;4820744;29;20620;-77
2021/12/03 19:22:50;;;;;;;3.83;1.75;;;;;;;;;;4821387;29;20038;-78
2021/12/03 19:25:16;;;;;;;4.80;1.80;;;;;;;;;;4821613;29;20046;-78
2021/12/03 19:27:43;;;;;;;5.45;1.83;;;;;;;;;;4851680;29;20028;-78
2021/12/03 19:30:10;;;;;;;5.47;1.70;;;;;;;;;;4860308;29;20064;-78
2021/12/03 19:32:36;;;;;;;4.85;2.05;;;;;;;;;;4844095;29;20026;-79
2021/12/03 19:35:03;;;;;;;5.43;1.92;;;;;;;;;;4857410;29;20034;-78
2021/12/03 19:37:29;;;;;;;2.88;1.60;;;;;;;;;;4852689;29;20029;-78
2021/12/03 19:39:57;;;;;;;4.20;2.10;;;;;;;;;;4850660;29;20090;-78
2021/12/03 19:42:28;;;;;;;3.55;1.58;;;;;;;;;;4854147;29;20112;-78
2021/12/03 19:45:01;;;;;;;2.45;1.30;;;;;;;;;;4847386;29;20044;-78
2021/12/03 19:47:46;;;;;;;3.00;1.77;;;;;;;;;;4851377;29;20105;-78
2021/12/03 19:50:31;;;;;;;3.53;1.60;;;;;;;;;;4858370;29;20531;-78
2021/12/03 19:53:02;;;;;;;3.80;1.80;;;;;;;;;;4859632;29;20043;-78
2021/12/03 19:55:28;;;;;;;5.45;2.22;;;;;;;;;;4842190;29;20470;-79
2021/12/03 19:57:54;;;;;;;3.47;1.42;;;;;;;;;;4847303;29;20045;-79
2021/12/03 20:00:25;;;;;;;4.85;1.85;;;;;;;;;;4850015;29;20030;-79
2021/12/03 20:02:52;;;;;;;5.25;1.80;;;;;;;;;;4856138;29;20025;-78
2021/12/03 20:05:18;;;;;;;4.45;2.08;;;;;;;;;;4855169;29;20061;-79
2021/12/03 20:07:44;;;;;;;3.10;1.80;;;;;;;;;;4840640;29;20036;-79
2021/12/03 20:10:11;;;;;;;3.78;1.70;;;;;;;;;;4848244;29;20034;-84
2021/12/03 20:12:37;;;;;;;3.50;1.92;;;;;;;;;;4850461;29;20112;-78
2021/12/03 20:15:07;;;;;;;6.13;1.38;;;;;;;;;;4859387;29;20045;-78
2021/12/03 20:17:43;;;;;;;3.53;1.73;;;;;;;;;;4853528;29;20025;-78
2021/12/03 20:20:10;;;;;;;5.40;1.70;;;;;;;;;;4854206;29;20054;-78
2021/12/03 20:28:09;;;;;;;3.70;1.40;;;;;;;;;;4861747;29;20049;-78
2021/12/03 20:38:19;;;;;;;5.07;3.40;;;;;;;;;;4861935;29;20041;-78
2021/12/03 20:40:51;;;;;;;4.00;2.00;;;;;;;;;;4849704;29;20121;-78
2021/12/03 20:46:24;;;;;;;4.50;1.83;;;;;;;;;;4843762;29;20065;-79
2021/12/03 20:51:45;;;;;;;3.47;1.90;;;;;;;;;;4843575;29;20078;-79
2021/12/03 21:10:28;;;;;;;5.55;2.60;;;;;;;;;;4862380;29;20045;-78
2021/12/03 21:12:56;;;;;;;4.00;2.75;;;;;;;;;;4858796;29;20068;-79
2021/12/03 21:20:51;;;;;;;6.22;2.80;;;;;;;;;;4829378;29;20050;-78
2021/12/03 21:23:20;;;;;;;7.82;2.38;;;;;;;;;;4843768;29;20026;-78
2021/12/03 21:25:51;;;;;;;6.75;2.17;;;;;;;;;;4843860;29;20034;-78
2021/12/03 21:28:31;;;;;;;5.28;2.38;;;;;;;;;;4851385;29;20025;-78
2021/12/03 21:41:24;;;;;;;4.03;2.10;;;;;;;;;;4844104;29;20034;-78
2021/12/03 21:43:50;;;;;;;;;;;;;;;;;;4843999;29;20086;-78
2021/12/03 21:46:18;;;;;;;2.45;1.42;;;;;;;;;;4872347;29;19912;-78
2021/12/03 21:48:44;;;;;;;2.55;1.70;;;;;;;;;;4842060;29;20061;-78
2021/12/03 21:51:10;;;;;;;2.38;1.60;;;;;;;;;;4842120;29;20482;-78
2021/12/03 21:53:36;;;;;;;3.85;1.90;;;;;;;;;;4843390;29;20037;-78
2021/12/03 21:56:03;;;;;;;3.63;2.08;;;;;;;;;;4851954;29;20044;-78
2021/12/03 21:58:29;;;;;;;3.90;1.60;;;;;;;;;;4860940;29;20037;-78
2021/12/03 22:00:55;;;;;;;3.97;1.88;;;;;;;;;;4861593;29;20102;-78
2021/12/03 22:03:21;;;;;;;5.57;2.50;;;;;;;;;;4859967;29;20443;-78
2021/12/03 22:05:50;;;;;;;3.65;1.48;;;;;;;;;;4845207;29;20379;-78
2021/12/03 22:08:16;;;;;;;5.30;2.33;;;;;;;;;;4843346;29;20041;-78
2021/12/03 22:10:42;;;;;;;5.90;1.88;;;;;;;;;;4851955;29;20045;-78
2021/12/03 22:13:08;;;;;;;7.25;1.80;;;;;;;;;;4860567;29;20144;-78
2021/12/03 22:15:35;;;;;;;5.35;1.83;;;;;;;;;;4860234;29;20402;-78
2021/12/03 22:18:01;;;;;;;4.47;1.83;;;;;;;;;;4847384;29;20378;-78
2021/12/03 22:20:27;;;;;;;4.53;1.80;;;;;;;;;;4857608;29;20049;-78
2021/12/03 22:22:53;;;;;;;2.38;1.15;;;;;;;;;;4842950;29;20060;-78
2021/12/03 22:25:20;;;;;;;4.22;1.58;;;;;;;;;;4842954;29;20037;-78
2021/12/03 22:27:46;;;;;;;2.33;1.30;;;;;;;;;;4842202;29;20026;-78
2021/12/03 22:30:12;;;;;;;3.53;1.48;;;;;;;;;;4841377;29;20060;-78
2021/12/03 22:32:38;;;;;;;2.95;1.52;;;;;;;;;;4852333;29;20048;-78
2021/12/03 22:35:05;;;;;;;3.30;1.38;;;;;;;;;;4860829;29;20033;-78
2021/12/03 22:37:31;;;;;;;5.25;1.50;;;;;;;;;;4844946;29;20079;-78
2021/12/03 22:39:59;;;;;;;2.80;1.60;;;;;;;;;;4842483;29;20030;-78
2021/12/03 22:42:25;;;;;;;3.00;1.00;;;;;;;;;;4856255;29;20029;-78
2021/12/03 22:44:51;;;;;;;3.88;1.20;;;;;;;;;;4857019;29;20065;-78
2021/12/03 22:47:41;;;;;;;3.22;1.30;;;;;;;;;;4842865;29;20029;-78
2021/12/03 22:52:39;;;;;;;3.42;1.20;;;;;;;;;;4860662;29;20029;-78
2021/12/03 22:55:07;;;;;;;2.67;1.58;;;;;;;;;;4859732;29;20052;-78
2021/12/03 22:57:33;;;;;;;2.70;1.30;;;;;;;;;;4851318;29;20413;-78
2021/12/03 22:59:59;;;;;;;1.45;0.82;;;;;;;;;;4844955;29;20037;-78
2021/12/03 23:02:25;;;;;;;1.98;0.93;;;;;;;;;;4850324;29;20037;-78
2021/12/03 23:04:52;;;;;;;1.27;0.77;;;;;;;;;;4852387;29;20052;-78
2021/12/03 23:07:18;;;;;;;3.50;1.13;;;;;;;;;;4842955;29;20037;-78
2021/12/03 23:09:44;;;;;;;3.15;0.85;;;;;;;;;;4854450;29;20029;-78
2021/12/03 23:12:12;;;;;;;3.60;1.10;;;;;;;;;;4847255;29;20071;-78
2021/12/03 23:14:38;;;;;;;3.47;1.20;;;;;;;;;;4848607;29;20067;-78
2021/12/03 23:17:04;;;;;;;2.10;1.20;;;;;;;;;;4865898;29;20551;-78
2021/12/03 23:19:31;;;;;;;4.72;1.50;;;;;;;;;;4842877;29;20034;-78
2021/12/03 23:21:57;;;;;;;3.13;1.00;;;;;;;;;;4855334;29;20038;-78
2021/12/03 23:24:24;;;;;;;2.50;1.10;;;;;;;;;;4857620;29;20398;-78
2021/12/03 23:26:50;;;;;;;4.32;0.98;;;;;;;;;;4852452;29;20033;-78
2021/12/03 23:29:16;;;;;;;2.00;0.95;;;;;;;;;;4848789;29;20060;-78
2021/12/03 23:31:44;;;;;;;1.20;0.80;;;;;;;;;;4847245;29;20124;-78
2021/12/03 23:34:12;;;;;;;2.13;0.85;;;;;;;;;;4841522;29;20026;-78
2021/12/03 23:36:39;;;;;;;3.08;0.80;;;;;;;;;;4848851;29;20037;-78
2021/12/03 23:39:06;;;;;;;2.30;0.90;;;;;;;;;;4860287;29;20025;-78
2021/12/03 23:41:32;;;;;;;3.78;0.77;;;;;;;;;;4853027;29;20037;-78
2021/12/03 23:43:58;;;;;;;2.80;1.35;;;;;;;;;;4851251;29;20033;-78
2021/12/03 23:46:25;;;;;;;5.50;1.08;;;;;;;;;;4857713;29;20025;-79